Time;durP1;ratioP1;P1;durP2;ratioP2;P2;SDS_P1;SDS_P2;PMS_P1;PMS_P2;Temp;Humidity;BMP_temperature;BMP_pressure;BME280_temperature;BME280_humidity;BME280_pressure;Samples;Min_cycle;Max_cycle;Signal;HPM_P1;HPM_P2
2022/07/23 00:02:06;;;;;;;;;16.75;15.00;;;;;30.16;27.20;99307.69;5009618;28;8851;-75
2022/07/23 00:04:35;;;;;;;;;15.75;15.75;;;;;30.11;27.83;99310.75;5009436;28;8941;-77
2022/07/23 00:07:03;;;;;;;;;14.00;13.25;;;;;30.07;28.12;99317.38;4986759;28;8907;-76
2022/07/23 00:09:32;;;;;;;;;13.25;13.25;;;;;29.99;27.78;99312.66;5027773;28;9075;-76
2022/07/23 00:12:00;;;;;;;;;17.25;15.25;;;;;29.96;27.59;99306.69;5028991;28;8837;-74
2022/07/23 00:14:29;;;;;;;;;14.25;14.25;;;;;29.90;27.68;99308.91;5028947;28;8833;-76
2022/07/23 00:16:57;;;;;;;;;12.00;12.00;;;;;29.86;26.43;99309.31;5042856;28;8881;-75
2022/07/23 00:19:28;;;;;;;;;11.50;11.50;;;;;29.80;25.54;99304.47;5012020;28;8860;-76
2022/07/23 00:21:57;;;;;;;;;10.75;9.75;;;;;29.76;25.57;99316.47;5009270;28;8856;-76
2022/07/23 00:24:25;;;;;;;;;12.75;12.75;;;;;29.72;25.25;99316.69;5009196;28;8862;-75
2022/07/23 00:26:54;;;;;;;;;12.25;10.75;;;;;29.72;25.81;99316.69;5009194;28;8868;-76
2022/07/23 00:29:22;;;;;;;;;14.25;13.50;;;;;29.72;25.91;99315.84;5007814;28;8868;-76
2022/07/23 00:31:51;;;;;;;;;14.75;13.50;;;;;29.69;26.54;99321.44;5023752;28;9018;-75
2022/07/23 00:34:19;;;;;;;;;13.75;12.50;;;;;29.63;26.73;99319.28;5028591;28;8869;-76
2022/07/23 00:36:49;;;;;;;;;15.75;11.75;;;;;29.45;27.05;99321.66;5028572;28;8839;-75
2022/07/23 00:39:18;;;;;;;;;11.50;11.25;;;;;29.36;26.21;99309.84;5030842;28;8956;-75
2022/07/23 00:41:46;;;;;;;;;12.50;12.50;;;;;29.24;26.37;99314.38;5048430;28;8870;-77
2022/07/23 00:44:16;;;;;;;;;11.40;9.20;;;;;29.15;26.68;99317.84;5047531;28;8857;-75
2022/07/23 00:46:52;;;;;;;;;12.50;11.75;;;;;29.14;27.24;99314.28;5048769;28;8965;-76
2022/07/23 00:49:22;;;;;;;;;11.00;11.00;;;;;29.04;27.01;99313.31;5047601;28;8887;-74
2022/07/23 00:51:52;;;;;;;;;11.25;11.25;;;;;28.92;27.15;99303.53;5047453;28;8857;-76
2022/07/23 00:54:23;;;;;;;;;11.60;11.60;;;;;28.71;27.11;99311.50;5031072;28;8934;-74
2022/07/23 00:56:52;;;;;;;;;11.80;11.80;;;;;28.62;26.84;99315.78;5046976;28;8912;-75
2022/07/23 00:59:20;;;;;;;;;13.00;11.25;;;;;28.52;26.86;99312.09;5029608;28;8856;-75
2022/07/23 01:01:49;;;;;;;;;11.00;11.00;;;;;28.57;27.05;99312.59;5043125;28;8871;-76
2022/07/23 01:04:18;;;;;;;;;13.75;11.00;;;;;28.53;27.09;99314.69;5028244;28;8859;-75
2022/07/23 01:06:47;;;;;;;;;12.75;12.75;;;;;28.59;26.81;99310.66;5027100;28;8978;-76
2022/07/23 01:09:18;;;;;;;;;14.25;12.75;;;;;28.66;27.42;99311.00;5027002;28;8933;-76
2022/07/23 01:11:47;;;;;;;;;13.25;11.75;;;;;28.65;26.86;99309.31;4993539;28;8914;-74
2022/07/23 01:14:18;;;;;;;;;14.25;14.25;;;;;28.63;27.15;99312.09;5010328;28;9639;-76
2022/07/23 01:16:49;;;;;;;;;13.25;12.25;;;;;28.67;27.12;99316.25;5026410;28;8859;-76
2022/07/23 01:19:18;;;;;;;;;13.00;11.80;;;;;28.73;27.18;99315.78;5027345;28;8860;-75
2022/07/23 01:21:49;;;;;;;;;10.80;10.80;;;;;28.77;27.38;99319.94;5030346;28;8982;-75
2022/07/23 01:24:20;;;;;;;;;14.75;13.75;;;;;28.80;27.54;99318.81;5028475;28;8848;-76
2022/07/23 01:26:59;;;;;;;;;13.50;12.50;;;;;28.86;27.82;99312.94;5026500;28;8934;-76
2022/07/23 01:29:27;;;;;;;;;13.25;13.25;;;;;28.88;27.97;99323.56;5026478;28;8847;-76
2022/07/23 01:31:58;;;;;;;;;12.75;12.75;;;;;28.87;27.82;99311.13;5041114;28;8942;-75
2022/07/23 01:34:27;;;;;;;;;13.75;12.75;;;;;28.83;27.89;99317.72;5046556;28;8853;-76
2022/07/23 01:36:55;;;;;;;;;13.50;11.25;;;;;28.83;27.33;99315.91;5046171;28;8845;-76
2022/07/23 01:39:25;;;;;;;;;15.25;13.00;;;;;28.88;27.26;99315.50;5046064;28;8898;-76
2022/07/23 01:41:56;;;;;;;;;10.00;10.00;;;;;28.91;27.44;99305.38;5029518;28;8833;-75
2022/07/23 01:44:25;;;;;;;;;12.00;11.75;;;;;28.93;27.93;99314.16;5046331;28;8897;-76
2022/07/23 01:46:54;;;;;;;;;15.00;14.00;;;;;28.94;28.77;99315.00;5046567;28;8868;-75
2022/07/23 01:49:22;;;;;;;;;17.75;16.25;;;;;28.74;30.56;99314.78;5046012;28;8865;-75
2022/07/23 01:52:06;;;;;;;;;19.00;16.50;;;;;28.74;30.08;99325.53;5047512;28;8980;-76
2022/07/23 01:54:48;;;;;;;;;14.50;14.25;;;;;28.73;30.61;99318.47;5029590;28;8945;-75
2022/07/23 01:57:17;;;;;;;;;16.50;15.75;;;;;28.73;30.15;99322.97;5028466;28;9015;-76
2022/07/23 01:59:46;;;;;;;;;17.50;17.50;;;;;28.72;30.17;99323.94;5046180;28;8849;-76
2022/07/23 02:02:15;;;;;;;;;21.50;18.25;;;;;28.71;29.84;99323.06;5045866;28;8872;-75
2022/07/23 02:04:43;;;;;;;;;18.50;18.50;;;;;28.70;29.92;99317.84;5047072;28;8871;-74
2022/07/23 02:07:12;;;;;;;;;16.75;16.75;;;;;28.68;29.91;99319.81;5047053;28;8907;-75
2022/07/23 02:09:42;;;;;;;;;14.25;14.25;;;;;28.66;29.41;99317.25;5046155;28;8942;-75
2022/07/23 02:12:14;;;;;;;;;14.00;13.25;;;;;28.63;28.79;99316.63;5046041;28;8861;-76
2022/07/23 02:14:45;;;;;;;;;16.00;15.25;;;;;28.62;29.07;99314.91;5045969;28;8844;-75
2022/07/23 02:17:14;;;;;;;;;14.00;14.00;;;;;28.58;29.29;99309.81;5045998;28;8857;-75
2022/07/23 02:19:42;;;;;;;;;15.00;13.25;;;;;28.57;29.03;99317.97;5046231;28;8873;-75
2022/07/23 02:22:11;;;;;;;;;15.00;14.75;;;;;28.56;29.21;99310.88;5045941;28;8861;-75
2022/07/23 02:24:39;;;;;;;;;16.25;15.25;;;;;28.54;29.22;99318.19;5047043;28;8864;-76
2022/07/23 02:27:08;;;;;;;;;17.00;16.00;;;;;28.52;28.80;99318.31;5029321;28;8887;-76
2022/07/23 02:29:38;;;;;;;;;14.00;13.75;;;;;28.48;28.27;99322.19;5028902;28;8880;-75
2022/07/23 02:32:07;;;;;;;;;13.20;12.00;;;;;28.45;28.16;99322.44;5029769;28;8844;-75
2022/07/23 02:34:35;;;;;;;;;11.20;10.40;;;;;28.44;27.91;99317.19;5035154;28;8853;-75
2022/07/23 02:37:05;;;;;;;;;13.20;13.00;;;;;28.44;27.72;99315.38;5049804;28;8847;-75
2022/07/23 02:39:33;;;;;;;;;12.50;12.50;;;;;28.43;28.10;99310.13;5033275;28;8872;-77
2022/07/23 02:42:02;;;;;;;;;13.00;13.00;;;;;28.40;27.58;99308.53;5049392;28;8905;-76
2022/07/23 02:44:33;;;;;;;;;14.75;14.00;;;;;28.37;27.56;99309.63;5049800;28;8861;-77
2022/07/23 02:47:03;;;;;;;;;10.20;10.20;;;;;28.36;27.03;99307.91;5049375;28;8984;-75
2022/07/23 02:49:34;;;;;;;;;13.20;12.20;;;;;28.33;27.06;99308.16;5050569;28;9578;-75
2022/07/23 02:52:06;;;;;;;;;12.00;12.00;;;;;28.35;27.31;99308.88;5049104;28;8881;-74
2022/07/23 02:54:34;;;;;;;;;13.20;13.00;;;;;28.34;27.03;99307.19;5048969;28;8969;-75
2022/07/23 02:57:04;;;;;;;;;11.80;11.80;;;;;28.35;27.03;99311.56;5047981;28;8940;-76
2022/07/23 02:59:33;;;;;;;;;11.40;11.40;;;;;28.35;26.79;99316.94;5048720;28;8872;-76
2022/07/23 03:02:03;;;;;;;;;10.20;9.80;;;;;28.36;26.90;99309.75;5048983;28;9003;-74
2022/07/23 03:04:32;;;;;;;;;12.25;12.25;;;;;28.34;26.42;99311.72;5048955;28;8857;-74
2022/07/23 03:07:00;;;;;;;;;13.00;13.00;;;;;28.34;26.26;99306.34;5048645;28;8845;-76
2022/07/23 03:09:29;;;;;;;;;13.00;11.00;;;;;28.34;26.45;99301.81;5048633;28;8861;-76
2022/07/23 03:11:58;;;;;;;;;12.40;11.60;;;;;28.36;26.08;99309.75;5048531;28;8845;-76
2022/07/23 03:14:27;;;;;;;;;11.75;11.50;;;;;28.37;25.93;99309.63;5049149;28;8841;-75
2022/07/23 03:16:56;;;;;;;;;12.50;11.25;;;;;28.39;25.83;99310.38;5048929;28;8873;-76
2022/07/23 03:19:28;;;;;;;;;10.00;9.40;;;;;28.39;25.92;99310.38;5048380;28;8872;-75
2022/07/23 03:21:57;;;;;;;;;17.00;13.25;;;;;28.42;25.69;99311.94;5048813;28;9000;-76
2022/07/23 03:24:53;;;;;;;;;11.75;11.75;;;;;28.44;26.28;99318.03;5050198;28;8975;-77
2022/07/23 03:27:15;;;;;;;;;11.20;10.00;;;;;28.50;26.09;99314.88;5048793;28;8849;-76
2022/07/23 03:29:44;;;;;;;;;13.50;13.50;;;;;28.52;25.51;99317.47;5048518;28;9019;-76
2022/07/23 03:32:12;;;;;;;;;12.00;11.00;;;;;28.52;25.99;99322.84;5048722;28;8868;-74
2022/07/23 03:34:42;;;;;;;;;9.80;9.80;;;;;28.57;25.56;99321.50;5027630;28;8855;-76
2022/07/23 03:37:11;;;;;;;;;12.00;11.40;;;;;28.61;25.69;99324.78;5028702;28;8962;-74
2022/07/23 03:39:40;;;;;;;;;12.60;12.20;;;;;28.65;26.10;99326.25;5044259;28;8863;-76
2022/07/23 03:42:09;;;;;;;;;10.00;10.00;;;;;28.70;25.91;99325.91;5029169;28;8839;-75
2022/07/23 03:44:38;;;;;;;;;12.25;12.25;;;;;28.75;26.77;99332.63;5047622;28;8861;-75
2022/07/23 03:47:07;;;;;;;;;16.75;15.50;;;;;28.82;28.58;99337.50;5048001;28;8860;-76
2022/07/23 03:49:36;;;;;;;;;13.75;13.75;;;;;28.84;29.36;99331.00;5049032;28;8883;-76
2022/07/23 03:52:06;;;;;;;;;14.00;13.50;;;;;28.86;28.78;99330.91;5047931;28;8899;-74
2022/07/23 03:54:34;;;;;;;;;12.00;12.00;;;;;28.87;26.22;99325.41;5049013;28;8864;-76
2022/07/23 03:57:03;;;;;;;;;11.25;10.75;;;;;28.69;26.10;99325.03;5047632;28;8903;-77
2022/07/23 03:59:34;;;;;;;;;37.25;32.00;;;;;28.75;27.32;99326.38;5047822;28;8861;-75
2022/07/23 04:02:02;;;;;;;;;16.00;16.00;;;;;28.81;26.85;99330.41;5047511;28;8857;-77
2022/07/23 04:04:31;;;;;;;;;14.00;13.00;;;;;28.88;27.17;99324.41;5047986;28;8870;-76
2022/07/23 04:07:01;;;;;;;;;13.00;13.00;;;;;28.94;27.79;99326.63;5047369;28;8837;-76
2022/07/23 04:09:32;;;;;;;;;14.50;13.00;;;;;29.04;27.58;99325.88;5047907;28;8941;-76
2022/07/23 04:12:02;;;;;;;;;14.00;13.50;;;;;29.12;27.26;99328.78;5047999;28;8852;-76
2022/07/23 04:14:30;;;;;;;;;13.00;11.75;;;;;29.20;26.72;99325.50;5045002;28;8860;-75
2022/07/23 04:16:59;;;;;;;;;6.25;6.25;;;;;29.27;25.33;99324.03;5027993;28;8867;-76
2022/07/23 04:19:30;;;;;;;;;13.00;12.00;;;;;29.33;25.30;99320.84;4994418;28;8867;-78
2022/07/23 04:22:07;;;;;;;;;12.00;12.00;;;;;29.44;25.09;99330.72;5027458;28;8867;-76
2022/07/23 04:24:38;;;;;;;;;12.25;11.25;;;;;29.52;24.23;99321.03;5027490;28;8843;-76
2022/07/23 04:27:07;;;;;;;;;10.75;10.75;;;;;29.63;24.81;99328.19;5027658;28;9621;-76
2022/07/23 04:29:36;;;;;;;;;13.50;13.00;;;;;29.72;24.27;99319.38;5027575;28;9609;-75
2022/07/23 04:32:05;;;;;;;;;11.00;10.00;;;;;29.83;24.83;99315.81;5027215;28;8870;-75
2022/07/23 04:34:34;;;;;;;;;11.75;11.50;;;;;29.95;24.37;99310.38;4994338;28;8997;-75
2022/07/23 04:37:03;;;;;;;;;13.75;12.75;;;;;30.06;24.83;99316.53;5036648;28;8873;-75
2022/07/23 04:39:33;;;;;;;;;15.25;15.25;;;;;30.18;25.88;99317.31;5047256;28;8899;-75
2022/07/23 04:42:03;;;;;;;;;21.25;19.75;;;;;30.29;27.43;99324.47;5047807;28;8869;-76
2022/07/23 04:44:32;;;;;;;;;16.25;16.25;;;;;30.42;27.50;99316.22;5047543;28;9679;-76
2022/07/23 04:47:03;;;;;;;;;17.00;14.75;;;;;30.54;27.62;99319.69;5047240;28;8853;-74
2022/07/23 04:49:32;;;;;;;;;13.00;12.00;;;;;30.63;26.97;99324.25;5046044;28;8851;-76
2022/07/23 04:52:00;;;;;;;;;16.25;16.25;;;;;30.72;28.92;99323.44;5065375;28;8857;-76
2022/07/23 04:54:30;;;;;;;;;20.00;20.00;;;;;30.82;29.68;99313.56;5048915;28;8891;-77
2022/07/23 04:56:58;;;;;;;;;20.75;20.50;;;;;30.88;29.53;99315.69;5049528;28;8998;-82
2022/07/23 04:59:29;;;;;;;;;23.25;21.75;;;;;30.91;29.49;99325.41;5000606;28;8897;-76
2022/07/23 05:02:02;;;;;;;;;18.50;17.50;;;;;30.94;28.11;99321.56;5049356;28;8845;-76
2022/07/23 05:04:32;;;;;;;;;18.00;18.00;;;;;30.93;29.03;99318.03;5049053;28;8923;-77
2022/07/23 05:07:03;;;;;;;;;16.50;15.00;;;;;30.98;27.15;99317.59;5048825;28;8857;-75
2022/07/23 05:09:32;;;;;;;;;15.50;14.75;;;;;30.99;28.92;99328.25;5048750;28;8993;-75
2022/07/23 05:12:01;;;;;;;;;16.50;16.50;;;;;31.06;28.82;99323.19;5065544;28;8983;-75
2022/07/23 05:14:32;;;;;;;;;17.50;16.00;;;;;31.07;28.70;99320.31;5048739;28;9694;-76
2022/07/23 05:17:01;;;;;;;;;17.75;16.75;;;;;31.11;28.54;99331.69;5048553;28;8849;-76
2022/07/23 05:19:29;;;;;;;;;17.50;17.50;;;;;31.15;28.58;99333.09;5048467;28;9114;-77
2022/07/23 05:21:59;;;;;;;;;14.25;14.00;;;;;31.14;28.73;99330.56;5065417;28;8869;-77
2022/07/23 05:24:27;;;;;;;;;16.75;16.00;;;;;31.01;29.13;99334.34;5024777;28;8993;-76
2022/07/23 05:26:56;;;;;;;;;13.50;13.50;;;;;30.93;29.71;99339.59;5008416;28;8859;-76
2022/07/23 05:29:27;;;;;;;;;13.25;13.00;;;;;30.87;27.56;99340.94;4984096;28;8855;-75
2022/07/23 05:31:58;;;;;;;;;12.50;12.50;;;;;30.87;27.84;99340.94;5004993;28;8879;-75
2022/07/23 05:34:26;;;;;;;;;13.25;13.25;;;;;30.95;26.08;99337.59;5005044;28;8886;-76
2022/07/23 05:36:55;;;;;;;;;16.50;14.75;;;;;31.00;25.72;99332.66;5004712;28;8886;-76
2022/07/23 05:39:23;;;;;;;;;14.50;13.25;;;;;31.03;24.86;99343.16;5005196;28;8863;-76
2022/07/23 05:41:52;;;;;;;;;9.25;9.25;;;;;31.06;25.38;99345.56;4984950;28;8858;-76
2022/07/23 05:44:22;;;;;;;;;16.50;15.25;;;;;31.15;25.01;99338.50;4953052;28;9647;-76
2022/07/23 05:46:50;;;;;;;;;13.75;13.75;;;;;31.29;24.96;99345.34;4969334;28;8985;-75
2022/07/23 05:49:24;;;;;;;;;17.75;17.75;;;;;31.48;25.75;99342.72;4985406;28;8916;-75
2022/07/23 05:52:11;;;;;;;;;15.75;14.00;;;;;31.60;23.27;99353.38;4955481;28;8905;-76
2022/07/23 05:55:07;;;;;;;;;19.25;19.25;;;;;31.64;24.51;99358.31;4941530;28;9700;-77
2022/07/23 05:57:37;;;;;;;;;14.50;12.00;;;;;31.64;23.65;99352.09;4966081;28;8866;-75
2022/07/23 06:00:07;;;;;;;;;20.00;18.00;;;;;31.66;24.68;99359.06;4965759;28;8878;-76
2022/07/23 06:02:41;;;;;;;;;12.50;12.50;;;;;31.81;22.26;99354.06;4994217;28;8876;-76
2022/07/23 06:05:13;;;;;;;;;11.50;11.50;;;;;31.96;21.71;99353.66;4991513;28;8885;-76
2022/07/23 06:07:42;;;;;;;;;11.75;11.75;;;;;32.13;21.63;99349.41;4976268;28;8900;-77
2022/07/23 06:10:11;;;;;;;;;16.00;16.00;;;;;32.30;23.10;99340.56;4993677;28;8861;-76
2022/07/23 06:12:40;;;;;;;;;19.50;18.75;;;;;32.41;23.46;99343.09;4993130;28;9020;-75
2022/07/23 06:15:11;;;;;;;;;19.25;18.00;;;;;32.54;23.69;99345.50;4994173;28;9695;-76
2022/07/23 06:17:40;;;;;;;;;18.25;17.25;;;;;32.69;23.74;99339.66;4975904;28;9017;-75
2022/07/23 06:20:10;;;;;;;;;17.75;16.50;;;;;32.51;25.30;99344.94;5012849;28;8873;-75
2022/07/23 06:22:42;;;;;;;;;15.50;15.50;;;;;32.42;25.19;99344.81;5010508;28;8899;-75
2022/07/23 06:25:12;;;;;;;;;19.25;17.25;;;;;31.99;26.49;99351.53;4994874;28;8850;-75
2022/07/23 06:27:47;;;;;;;;;15.00;14.00;;;;;31.96;25.14;99350.97;5008394;28;8869;-76
2022/07/23 06:30:17;;;;;;;;;17.00;16.25;;;;;32.14;25.99;99346.59;4991763;28;8946;-75
2022/07/23 06:32:46;;;;;;;;;13.25;13.00;;;;;32.44;26.92;99344.69;5035036;28;8869;-76
2022/07/23 06:35:16;;;;;;;;;17.75;16.25;;;;;32.69;25.70;99340.50;5067639;28;8857;-77
2022/07/23 06:37:49;;;;;;;;;14.50;14.50;;;;;32.82;23.68;99345.56;5051009;28;8853;-76
2022/07/23 06:40:18;;;;;;;;;16.50;16.50;;;;;32.93;24.00;99347.22;5050509;28;8873;-76
2022/07/23 06:42:47;;;;;;;;;25.50;22.00;;;;;32.96;24.46;99347.78;5051211;28;9657;-76
2022/07/23 06:45:23;;;;;;;;;21.00;19.50;;;;;33.17;24.37;99355.66;5067359;28;8856;-75
2022/07/23 06:47:51;;;;;;;;;15.00;15.00;;;;;33.39;24.07;99350.84;5067729;28;8900;-77
2022/07/23 06:50:20;;;;;;;;;16.75;16.00;;;;;33.61;24.05;99349.53;5050321;28;8885;-78
2022/07/23 06:52:51;;;;;;;;;15.25;15.25;;;;;33.88;23.42;99351.34;5067528;28;8856;-76
2022/07/23 06:55:20;;;;;;;;;11.00;11.00;;;;;34.12;23.26;99357.97;5018438;28;8845;-76
2022/07/23 06:57:48;;;;;;;;;15.50;15.50;;;;;34.32;22.78;99359.50;5051248;28;8966;-77
2022/07/23 07:00:17;;;;;;;;;13.00;13.00;;;;;34.52;22.78;99352.03;5051499;28;8853;-75
2022/07/23 07:02:46;;;;;;;;;17.50;15.50;;;;;34.70;22.77;99359.28;5034930;28;9016;-75
2022/07/23 07:05:14;;;;;;;;;17.50;17.00;;;;;34.87;22.46;99352.09;5067598;28;8880;-76
2022/07/23 07:07:43;;;;;;;;;14.00;13.50;;;;;35.00;21.48;99351.63;5067960;28;8857;-75
2022/07/23 07:10:13;;;;;;;;;12.67;12.67;;;;;35.13;21.79;99343.91;5017596;28;8861;-76
2022/07/23 07:12:44;;;;;;;;;12.25;12.00;;;;;35.27;21.29;99350.56;5060099;28;8881;-77
2022/07/23 07:15:13;;;;;;;;;13.75;12.25;;;;;35.37;20.78;99345.00;5027095;28;8860;-77
2022/07/23 07:17:42;;;;;;;;;12.50;11.75;;;;;35.52;20.42;99338.78;5027537;28;8836;-75
2022/07/23 07:20:12;;;;;;;;;10.00;10.00;;;;;35.62;20.67;99348.63;5027070;28;8871;-76
2022/07/23 07:22:40;;;;;;;;;11.50;9.00;;;;;35.75;20.06;99354.44;5026997;28;8918;-77
2022/07/23 07:25:09;;;;;;;;;10.50;10.50;;;;;35.83;19.07;99354.44;4978489;28;8859;-76
2022/07/23 07:27:39;;;;;;;;;8.00;8.00;;;;;35.97;19.11;99350.19;5026904;28;8856;-77
2022/07/23 07:30:10;;;;;;;;;14.50;14.50;;;;;36.09;18.79;99350.72;5027237;28;8856;-76
2022/07/23 07:32:39;;;;;;;;;12.00;11.00;;;;;36.18;18.00;99357.00;5010501;28;8864;-76
2022/07/23 07:35:26;;;;;;;;;11.00;11.00;;;;;36.30;17.81;99348.34;5027165;28;9622;-77
2022/07/23 07:37:55;;;;;;;;;10.00;9.25;;;;;36.39;18.23;99351.03;5026945;28;8878;-75
2022/07/23 07:40:23;;;;;;;;;12.00;11.00;;;;;36.45;17.45;99348.50;5010656;28;8995;-76
2022/07/23 07:42:59;;;;;;;;;9.00;9.00;;;;;36.58;17.44;99355.25;5027115;28;8856;-76
2022/07/23 07:45:27;;;;;;;;;11.50;9.50;;;;;36.69;17.71;99341.31;5029362;28;8932;-78
2022/07/23 07:47:57;;;;;;;;;12.50;11.75;;;;;36.76;17.04;99336.06;5048229;28;8967;-78
2022/07/23 07:50:25;;;;;;;;;10.25;9.00;;;;;36.84;17.14;99347.72;5038687;28;8928;-77
2022/07/23 07:52:54;;;;;;;;;9.25;8.50;;;;;36.93;17.50;99342.28;5029907;28;8998;-76
2022/07/23 07:55:23;;;;;;;;;10.25;10.25;;;;;37.02;17.01;99344.78;5029400;28;8966;-76
2022/07/23 07:57:51;;;;;;;;;13.50;12.00;;;;;37.04;18.51;99340.00;5029445;28;9655;-75
2022/07/23 08:00:21;;;;;;;;;14.00;13.25;;;;;36.15;19.52;99350.03;5029413;28;8888;-75
2022/07/23 08:02:51;;;;;;;;;13.25;13.25;;;;;36.26;18.63;99344.28;5028785;28;8875;-76
2022/07/23 08:05:22;;;;;;;;;11.00;11.00;;;;;36.54;18.74;99348.47;5027609;28;9670;-75
2022/07/23 08:07:56;;;;;;;;;12.25;11.50;;;;;36.73;18.63;99349.97;5028755;28;8998;-77
2022/07/23 08:10:25;;;;;;;;;14.50;12.75;;;;;36.64;18.80;99346.44;5029104;28;8856;-76
2022/07/23 08:12:56;;;;;;;;;14.25;13.25;;;;;36.68;18.97;99337.75;5027855;28;8863;-76
2022/07/23 08:15:28;;;;;;;;;18.00;18.00;;;;;36.82;20.47;99338.91;5029267;28;8871;-76
2022/07/23 08:17:57;;;;;;;;;8.75;8.75;;;;;36.95;21.50;99332.91;5029246;28;8844;-75
2022/07/23 08:20:27;;;;;;;;;16.25;15.75;;;;;37.08;21.48;99340.50;5029229;28;8835;-76
2022/07/23 08:22:57;;;;;;;;;17.50;16.00;;;;;37.18;20.83;99333.00;5029134;28;8875;-76
2022/07/23 08:25:28;;;;;;;;;17.25;17.25;;;;;37.23;20.97;99333.31;5028418;28;8973;-77
2022/07/23 08:27:58;;;;;;;;;19.00;17.75;;;;;37.25;21.01;99333.13;5028757;28;8897;-76
2022/07/23 08:30:29;;;;;;;;;17.50;16.25;;;;;37.32;19.93;99335.97;5043198;28;9006;-76
2022/07/23 08:33:00;;;;;;;;;15.25;15.25;;;;;37.23;20.10;99336.03;5027742;28;8860;-76
2022/07/23 08:35:31;;;;;;;;;16.25;13.75;;;;;37.34;20.59;99345.66;5028884;28;9691;-77
2022/07/23 08:38:01;;;;;;;;;10.50;10.25;;;;;37.42;19.35;99329.28;5029008;28;8878;-77
2022/07/23 08:40:32;;;;;;;;;13.75;13.25;;;;;37.52;19.04;99331.78;4993274;28;8883;-77
2022/07/23 08:43:03;;;;;;;;;14.00;14.00;;;;;37.56;19.12;99335.81;5028022;28;8871;-77
2022/07/23 08:45:37;;;;;;;;;17.00;15.75;;;;;37.67;19.04;99337.31;5009039;28;8993;-76
2022/07/23 08:48:09;;;;;;;;;17.50;16.00;;;;;37.71;19.68;99330.47;5028448;28;8840;-77
2022/07/23 08:50:41;;;;;;;;;18.00;17.25;;;;;37.67;19.65;99333.75;5027998;28;8847;-76
2022/07/23 08:53:12;;;;;;;;;18.00;16.00;;;;;37.83;20.25;99334.47;5028559;28;8844;-77
2022/07/23 08:55:44;;;;;;;;;23.25;21.00;;;;;37.90;21.26;99334.56;5026877;28;8859;-76
2022/07/23 08:58:13;;;;;;;;;17.50;17.25;;;;;37.95;20.49;99325.88;5027369;28;8877;-78
2022/07/23 09:00:43;;;;;;;;;19.75;19.50;;;;;37.96;20.76;99320.25;5042608;28;8863;-75
2022/07/23 09:03:17;;;;;;;;;18.75;18.75;;;;;38.04;21.12;99322.91;5047749;28;9035;-77
2022/07/23 09:05:46;;;;;;;;;24.00;23.25;;;;;38.11;21.52;99323.03;5013755;28;8841;-77
2022/07/23 09:08:16;;;;;;;;;17.50;16.50;;;;;38.18;19.45;99323.13;5048123;28;8865;-77
2022/07/23 09:10:50;;;;;;;;;22.00;22.00;;;;;38.13;21.17;99326.44;5048109;28;8853;-78
2022/07/23 09:13:30;;;;;;;;;24.00;24.00;;;;;38.13;21.19;99325.56;5047737;28;8857;-78
2022/07/23 09:16:02;;;;;;;;;29.25;27.00;;;;;37.93;20.95;99330.66;5034874;28;8957;-76
2022/07/23 09:18:33;;;;;;;;;23.50;23.50;;;;;37.71;21.16;99329.63;5028268;28;8871;-76
2022/07/23 09:21:14;;;;;;;;;21.50;21.50;;;;;37.58;20.82;99332.91;5027919;28;8889;-78
2022/07/23 09:23:47;;;;;;;;;23.00;22.25;;;;;37.75;21.37;99336.41;5026617;28;8898;-76
2022/07/23 09:26:32;;;;;;;;;25.75;25.25;;;;;37.13;21.57;99329.06;5027724;28;8867;-75
2022/07/23 09:29:05;;;;;;;;;25.75;24.75;;;;;36.75;21.83;99316.19;5026580;28;8855;-78
2022/07/23 09:31:44;;;;;;;;;27.50;26.75;;;;;36.92;22.14;99319.69;5027946;28;8848;-78
2022/07/23 09:34:15;;;;;;;;;25.00;23.75;;;;;37.07;22.09;99322.47;5028198;28;8847;-77
2022/07/23 09:36:44;;;;;;;;;24.75;24.25;;;;;37.24;22.35;99318.72;4992172;28;8898;-77
2022/07/23 09:39:13;;;;;;;;;25.75;25.00;;;;;37.41;22.31;99316.72;5029445;28;8882;-77
2022/07/23 09:41:44;;;;;;;;;24.00;23.50;;;;;37.56;22.36;99314.06;5031359;28;8886;-76
2022/07/23 09:44:15;;;;;;;;;28.00;27.25;;;;;36.68;24.09;99310.59;4997380;28;8848;-78
2022/07/23 09:46:47;;;;;;;;;24.75;24.00;;;;;36.09;24.49;99319.00;5031929;28;8843;-77
2022/07/23 09:49:19;;;;;;;;;26.75;25.50;;;;;36.40;24.80;99312.00;5031674;28;8867;-75
2022/07/23 09:51:51;;;;;;;;;27.00;26.00;;;;;36.06;25.04;99323.91;5031784;28;8832;-76
2022/07/23 09:54:26;;;;;;;;;25.75;25.00;;;;;35.74;25.36;99311.19;5031687;28;8889;-78
2022/07/23 09:56:57;;;;;;;;;28.75;26.50;;;;;35.40;25.34;99312.13;5031378;28;8840;-77
2022/07/23 09:59:28;;;;;;;;;22.00;21.00;;;;;35.67;24.39;99316.41;5030224;28;8844;-77
2022/07/23 10:02:00;;;;;;;;;22.50;22.00;;;;;35.74;23.82;99319.34;5031598;28;8948;-78
2022/07/23 10:04:31;;;;;;;;;24.50;20.75;;;;;35.69;24.18;99312.56;5037542;28;8837;-76
2022/07/23 10:07:29;;;;;;;;;21.50;21.00;;;;;36.06;24.38;99313.06;5049782;28;9408;-77
2022/07/23 10:10:16;;;;;;;;;25.25;24.50;;;;;36.32;23.41;99306.59;5051862;28;9113;-77
2022/07/23 10:15:51;;;;;;;;;21.25;21.00;;;;;36.58;23.80;99299.06;5050072;28;9653;-78
2022/07/23 10:18:21;;;;;;;;;24.00;23.75;;;;;36.40;23.82;99299.28;5051392;28;8845;-76
2022/07/23 10:20:50;;;;;;;;;23.75;23.00;;;;;36.46;23.22;99295.84;5051460;28;8861;-76
2022/07/23 10:23:25;;;;;;;;;20.25;18.00;;;;;36.73;23.26;99291.06;5048380;28;8856;-75
2022/07/23 10:26:01;;;;;;;;;21.25;21.00;;;;;36.38;23.39;99290.44;5031047;28;9556;-76
2022/07/23 10:28:54;;;;;;;;;24.50;24.25;;;;;36.67;23.57;99287.19;5031148;28;8913;-76
2022/07/23 10:31:36;;;;;;;;;22.75;22.75;;;;;37.02;23.24;99284.97;4960653;28;8855;-77
2022/07/23 10:34:37;;;;;;;;;22.00;20.75;;;;;37.26;22.56;99275.84;4976432;28;8858;-77
2022/07/23 10:37:17;;;;;;;;;14.50;14.50;;;;;37.43;21.96;99278.44;4992031;28;8975;-77
2022/07/23 10:40:09;;;;;;;;;20.50;19.75;;;;;37.55;21.90;99276.16;4992120;28;8862;-76
2022/07/23 10:42:38;;;;;;;;;19.50;18.75;;;;;37.77;22.19;99278.06;5008586;28;8894;-78
2022/07/23 10:45:27;;;;;;;;;21.25;20.25;;;;;37.91;21.94;99270.94;5008876;28;8866;-78
2022/07/23 10:47:56;;;;;;;;;19.50;19.25;;;;;38.06;21.26;99272.84;5008915;28;8855;-77
2022/07/23 10:50:30;;;;;;;;;21.00;20.25;;;;;38.21;20.96;99268.31;4991583;28;8846;-77
2022/07/23 10:53:11;;;;;;;;;21.50;20.25;;;;;38.08;20.82;99263.50;4992384;28;8986;-75
2022/07/23 10:55:43;;;;;;;;;17.00;17.00;;;;;38.26;20.75;99263.13;5008465;28;9651;-77
2022/07/23 10:58:17;;;;;;;;;18.75;17.25;;;;;38.34;20.65;99257.59;5008367;28;8869;-77
2022/07/23 11:00:48;;;;;;;;;16.00;16.00;;;;;38.51;20.29;99254.66;5008412;28;9009;-76
2022/07/23 11:03:36;;;;;;;;;19.75;19.75;;;;;38.69;20.05;99255.16;5027900;28;8949;-79
2022/07/23 11:06:07;;;;;;;;;15.25;14.00;;;;;38.90;19.47;99248.91;5027732;28;8868;-77
2022/07/23 11:08:36;;;;;;;;;16.75;15.75;;;;;39.09;19.86;99250.19;5038700;28;8849;-78
2022/07/23 11:11:12;;;;;;;;;16.25;15.75;;;;;39.26;19.19;99252.69;5031405;28;9546;-77
2022/07/23 11:13:48;;;;;;;;;18.25;17.75;;;;;39.25;18.41;99248.28;5050092;28;8841;-76
2022/07/23 11:16:23;;;;;;;;;18.75;18.75;;;;;38.77;18.89;99246.88;5048691;28;8892;-77
2022/07/23 11:19:07;;;;;;;;;19.25;18.25;;;;;38.54;19.34;99244.25;5050149;28;9199;-75
2022/07/23 11:21:56;;;;;;;;;19.00;17.75;;;;;38.47;19.26;99232.41;5049742;28;9011;-78
2022/07/23 11:24:26;;;;;;;;;19.25;17.75;;;;;38.42;19.46;99230.25;5049744;28;8886;-77
2022/07/23 11:27:00;;;;;;;;;20.25;19.75;;;;;38.67;18.99;99234.56;5032055;28;8959;-76
2022/07/23 11:29:45;;;;;;;;;20.00;20.00;;;;;38.94;19.14;99222.97;5034024;28;8867;-77
2022/07/23 11:32:40;;;;;;;;;17.50;17.25;;;;;39.31;18.30;99236.59;5030415;28;9573;-77
2022/07/23 11:35:37;;;;;;;;;21.25;21.25;;;;;39.63;17.98;99227.03;5007594;28;8878;-78
2022/07/23 11:38:15;;;;;;;;;24.00;23.25;;;;;40.01;17.32;99228.63;4949325;28;8942;-77
2022/07/23 11:40:46;;;;;;;;;18.50;18.50;;;;;40.28;17.32;99218.69;4957316;28;8875;-77
2022/07/23 11:43:15;;;;;;;;;26.25;26.25;;;;;40.61;15.86;99210.69;4952505;28;9609;-78
2022/07/23 11:45:45;;;;;;;;;27.00;25.50;;;;;40.93;15.66;99208.31;4953046;28;8859;-76
2022/07/23 11:48:19;;;;;;;;;23.75;22.75;;;;;41.22;15.63;99212.59;4968910;28;8871;-76
2022/07/23 11:50:48;;;;;;;;;23.75;23.75;;;;;41.50;15.83;99212.41;4953161;28;8885;-75